Weather

Frazier Lake Airpark (1C9) NOTAMS
Aviation Weather
HOLLISTER MUNI, CA
Metar
KCVH 201935Z AUTO 29004KT 10SM CLR 29/05 A2986 RMK A01

19:35 UTC

Wind: 290° 4kt

Visibility: 10 SM

Sky:

Temp: 29 deg C / 84.2 deg F

Dewpoint: 5 deg C / 41 deg F

Pressure: 29.86 inHg

Available data for KSJC from the past 2 hours
SAN JOSE, CA
Metar
KSJC 201853Z 00000KT 10SM CLR 28/04 A2987 RMK AO2 SLP113 T02780044

18:53 UTC

Wind: 0° 0kt

Visibility: 10 SM

Sky:

Temp: 28 deg C / 82.4 deg F

Dewpoint: 4 deg C / 39.2 deg F

Pressure: 29.87 inHg

TAF
KSJC 201720Z 2018/2118 VRB03KT P6SM SKC FM201900 33005KT P6SM SKC FM202200 33010KT P6SM SKC FM210400 VRB03KT P6SM SKC
Pirep (1)
O69 UA /OV O69270010/TM 1918/FL020/TP C152/SK SKC/WX FV20SM HZ/TA 21
 

Latitude: -121.4626 Longitude: 36.9528 Elevation: 154

Extended Forecast Summary for Frazier Lake Airpark

Frazier Lake Airpark